Munlochy, United Kingdom
Current Conditions -  °F | °C
As of 4:20 PM on Sunday 21 Dec 2014 (Local Time) from EGPE Reporting Station
Moderate Rain Moderate Rain  
Wind Chill: 42°   Ceiling: 4200
Heat Index: 48°   Visibility: 6mi
Dew Point: 48°   Wind: 15mph
Humidity: 100%   Direction: 240°WSW
Pressure: 29.53"   Gusts: 26mph
Location:  57.55°N, 4.26°W
Report Text: EGPE 211620Z 24013G23KT 9999 RA FEW012 SCT032 BKN042 09/09 Q1000
Loading
Personal Weather Stations






























Interactive Weather Map New forecast layout! Learn more

10-Day Weather Forecast

Advertisements
Track Severe Weather on mobile